Time;durP1;ratioP1;P1;durP2;ratioP2;P2;SDS_P1;SDS_P2;PMS_P1;PMS_P2;Temp;Humidity;BMP_temperature;BMP_pressure;BME280_temperature;BME280_humidity;BME280_pressure;Samples;Min_cycle;Max_cycle;Signal;HPM_P1;HPM_P2
2023/02/04 00:02:23;;;;;;;66.13;39.97;;;6.00;93.90;;;;;;5033450;28;20063;-73
2023/02/04 00:04:49;;;;;;;55.47;36.90;;;6.00;94.00;;;;;;5033224;28;20061;-73
2023/02/04 00:07:17;;;;;;;59.20;37.63;;;5.90;93.90;;;;;;5033393;28;20103;-73
2023/02/04 00:09:45;;;;;;;54.17;36.67;;;5.90;94.00;;;;;;5033349;28;20033;-74
2023/02/04 00:12:14;;;;;;;54.93;34.70;;;5.90;94.00;;;;;;5033118;28;20487;-74
2023/02/04 00:14:40;;;;;;;57.80;35.67;;;5.90;94.10;;;;;;5033331;28;20033;-73
2023/02/04 00:17:06;;;;;;;62.17;38.63;;;5.90;94.20;;;;;;5032743;28;20036;-71
2023/02/04 00:19:33;;;;;;;52.73;35.60;;;5.90;94.20;;;;;;5032461;28;20057;-73
2023/02/04 00:21:58;;;;;;;63.03;36.73;;;5.90;94.00;;;;;;5032490;28;20044;-74
2023/02/04 00:24:24;;;;;;;63.63;40.10;;;5.80;93.90;;;;;;5032650;28;20030;-73
2023/02/04 00:26:50;;;;;;;62.23;38.67;;;5.80;93.80;;;;;;5032124;28;20056;-73
2023/02/04 00:29:15;;;;;;;60.90;38.37;;;5.80;93.70;;;;;;5032785;28;20060;-73
2023/02/04 00:31:41;;;;;;;62.00;37.00;;;5.80;93.20;;;;;;5032775;28;20033;-74
2023/02/04 00:34:07;;;;;;;58.30;38.97;;;5.70;93.40;;;;;;5031386;28;20049;-74
2023/02/04 00:36:33;;;;;;;63.53;39.80;;;5.70;93.50;;;;;;5032195;28;20083;-74
2023/02/04 00:38:58;;;;;;;59.63;39.93;;;5.70;93.40;;;;;;5032257;28;20038;-73
2023/02/04 00:41:24;;;;;;;62.20;40.97;;;5.60;93.50;;;;;;5030540;28;20034;-73
2023/02/04 00:43:50;;;;;;;61.90;38.20;;;5.60;93.40;;;;;;5029727;28;20079;-73
2023/02/04 00:46:15;;;;;;;58.13;36.10;;;5.60;93.40;;;;;;5031593;28;20107;-73
2023/02/04 00:48:41;;;;;;;54.53;35.63;;;5.50;93.50;;;;;;5031831;28;20045;-72
2023/02/04 00:51:07;;;;;;;55.57;35.97;;;5.50;93.80;;;;;;5032038;28;20033;-72
2023/02/04 00:53:32;;;;;;;54.00;35.47;;;5.50;94.00;;;;;;5031321;28;20127;-72
2023/02/04 00:55:58;;;;;;;54.23;35.23;;;5.50;94.00;;;;;;5031842;28;20114;-73
2023/02/04 00:58:24;;;;;;;57.03;36.40;;;5.60;94.20;;;;;;5031063;28;20499;-72
2023/02/04 01:00:50;;;;;;;53.37;34.13;;;5.50;94.20;;;;;;5031425;28;20447;-73
2023/02/04 01:03:15;;;;;;;59.50;33.60;;;5.60;94.30;;;;;;5031718;28;20056;-73
2023/02/04 01:05:41;;;;;;;62.20;34.70;;;5.60;94.20;;;;;;5031923;28;20380;-73
2023/02/04 01:08:07;;;;;;;62.33;33.87;;;5.60;94.20;;;;;;5031906;28;20149;-73
2023/02/04 01:10:32;;;;;;;60.10;35.43;;;5.50;94.20;;;;;;5031131;28;20037;-72
2023/02/04 01:12:58;;;;;;;60.67;36.63;;;5.50;94.20;;;;;;5031578;28;20099;-73
2023/02/04 01:15:24;;;;;;;54.40;35.03;;;5.50;94.10;;;;;;5031065;28;20041;-73
2023/02/04 01:17:50;;;;;;;60.93;39.53;;;5.50;94.20;;;;;;5031197;28;20044;-73
2023/02/04 01:20:16;;;;;;;57.43;38.03;;;5.50;94.10;;;;;;5030509;28;20033;-73
2023/02/04 01:22:41;;;;;;;59.73;39.47;;;5.50;94.00;;;;;;5031004;28;20033;-73
2023/02/04 01:25:08;;;;;;;62.70;40.10;;;5.50;94.10;;;;;;5031552;28;20034;-73
2023/02/04 01:27:33;;;;;;;63.97;41.17;;;5.50;93.90;;;;;;5031342;28;20044;-72
2023/02/04 01:29:59;;;;;;;70.20;45.03;;;5.50;93.90;;;;;;5030916;28;20033;-73
2023/02/04 01:32:25;;;;;;;74.20;47.70;;;5.40;93.80;;;;;;5031093;28;20045;-73
2023/02/04 01:34:50;;;;;;;65.77;44.40;;;5.40;94.10;;;;;;5030740;28;20049;-73
2023/02/04 01:37:16;;;;;;;74.70;46.13;;;5.40;93.80;;;;;;5031543;28;20030;-73
2023/02/04 01:39:42;;;;;;;71.67;46.93;;;5.40;93.70;;;;;;5035199;28;20103;-73
2023/02/04 01:42:08;;;;;;;72.77;46.67;;;5.30;93.60;;;;;;5035336;28;20570;-72
2023/02/04 01:44:34;;;;;;;74.70;47.27;;;5.30;93.70;;;;;;5035388;28;20033;-72
2023/02/04 01:47:00;;;;;;;70.33;46.83;;;5.30;93.60;;;;;;5035735;28;20076;-73
2023/02/04 01:49:26;;;;;;;75.43;47.43;;;5.30;93.70;;;;;;5035594;28;20029;-73
2023/02/04 01:51:52;;;;;;;73.40;48.00;;;5.30;93.80;;;;;;5035390;28;20056;-72
2023/02/04 01:54:19;;;;;;;76.30;48.23;;;5.20;93.80;;;;;;5035338;28;20041;-72
2023/02/04 01:56:46;;;;;;;70.97;47.80;;;5.20;93.90;;;;;;5035634;28;20037;-75
2023/02/04 01:59:14;;;;;;;73.30;45.73;;;5.20;93.90;;;;;;5033037;28;20038;-73
2023/02/04 02:01:42;;;;;;;73.47;47.00;;;5.20;93.90;;;;;;5032706;28;20561;-73
2023/02/04 02:04:16;;;;;;;75.47;46.43;;;5.20;93.90;;;;;;5033130;28;20404;-72
2023/02/04 02:06:52;;;;;;;76.77;46.00;;;5.20;93.90;;;;;;5034926;28;20041;-73
2023/02/04 02:09:18;;;;;;;73.23;46.17;;;5.20;93.80;;;;;;5035350;28;20030;-72
2023/02/04 02:11:44;;;;;;;70.13;45.87;;;5.20;93.80;;;;;;5035050;28;20512;-73
2023/02/04 02:14:11;;;;;;;71.90;45.87;;;5.10;94.10;;;;;;5034590;28;20045;-73
2023/02/04 02:16:37;;;;;;;72.67;45.30;;;5.10;93.90;;;;;;5034855;28;20034;-72
2023/02/04 02:19:05;;;;;;;75.33;47.07;;;5.10;93.90;;;;;;5034996;28;20045;-73
2023/02/04 02:21:48;;;;;;;71.80;44.83;;;5.10;94.00;;;;;;5034965;28;20045;-73
2023/02/04 02:24:30;;;;;;;68.07;43.60;;;5.00;94.00;;;;;;5034447;28;20032;-73
2023/02/04 02:26:59;;;;;;;69.63;43.73;;;5.00;93.90;;;;;;5034309;28;20038;-73
2023/02/04 02:29:25;;;;;;;65.73;43.43;;;5.00;93.90;;;;;;5034391;28;20503;-72
2023/02/04 02:31:52;;;;;;;65.27;43.50;;;5.00;93.90;;;;;;5034690;28;20029;-72
2023/02/04 02:34:18;;;;;;;61.00;40.77;;;5.00;93.90;;;;;;5034609;28;20124;-72
2023/02/04 02:36:43;;;;;;;58.43;39.30;;;5.00;94.00;;;;;;5034310;28;20192;-73
2023/02/04 02:39:09;;;;;;;59.53;37.63;;;5.00;94.10;;;;;;5034639;28;20029;-72
2023/02/04 02:41:35;;;;;;;60.27;37.70;;;5.00;94.20;;;;;;5034320;28;20029;-73
2023/02/04 02:44:02;;;;;;;57.57;37.47;;;5.00;94.30;;;;;;5033960;28;20036;-74
2023/02/04 02:46:28;;;;;;;62.57;38.73;;;5.00;94.30;;;;;;5034523;28;20503;-73
2023/02/04 02:48:53;;;;;;;62.30;36.63;;;5.00;94.50;;;;;;5034153;28;20029;-72
2023/02/04 02:51:19;;;;;;;60.13;38.13;;;4.90;94.50;;;;;;5034478;28;20025;-72
2023/02/04 02:53:48;;;;;;;55.27;37.03;;;5.00;94.40;;;;;;5033844;28;20133;-72
2023/02/04 02:56:14;;;;;;;58.70;36.30;;;5.00;94.40;;;;;;5034306;28;20108;-73
2023/02/04 02:58:39;;;;;;;54.47;36.77;;;4.90;94.50;;;;;;5034117;28;20079;-73
2023/02/04 03:01:08;;;;;;;56.30;36.30;;;4.90;94.50;;;;;;5033995;28;20080;-72
2023/02/04 03:03:46;;;;;;;58.13;37.07;;;4.90;94.50;;;;;;5034134;28;20033;-73
2023/02/04 03:06:19;;;;;;;58.03;37.87;;;4.90;94.60;;;;;;5034213;28;20037;-73
2023/02/04 03:08:47;;;;;;;53.23;34.87;;;4.90;94.70;;;;;;5033783;28;20520;-73
2023/02/04 03:11:13;;;;;;;62.67;40.00;;;4.90;94.50;;;;;;5034220;28;20168;-72
2023/02/04 03:13:39;;;;;;;63.17;39.73;;;4.90;94.50;;;;;;5033796;28;20511;-73
2023/02/04 03:16:06;;;;;;;64.13;42.03;;;4.90;94.30;;;;;;5033957;28;20037;-73
2023/02/04 03:18:34;;;;;;;68.47;44.03;;;4.90;93.50;;;;;;5034121;28;20511;-72
2023/02/04 03:21:00;;;;;;;68.67;44.07;;;4.80;93.30;;;;;;5033455;28;20057;-73
2023/02/04 03:23:26;;;;;;;65.83;42.73;;;4.80;93.30;;;;;;5033637;28;20072;-73
2023/02/04 03:25:52;;;;;;;67.60;43.30;;;4.70;93.20;;;;;;5034833;28;20377;-73
2023/02/04 03:28:18;;;;;;;61.03;41.70;;;4.70;93.20;;;;;;5033546;28;20036;-73
2023/02/04 03:30:50;;;;;;;69.87;42.83;;;4.60;93.10;;;;;;5034091;28;20091;-73
2023/02/04 03:33:16;;;;;;;63.97;40.55;;;4.50;93.00;;;;;;5033602;28;20041;-73
2023/02/04 03:35:42;;;;;;;70.17;41.93;;;4.50;92.90;;;;;;5033352;28;20075;-73
2023/02/04 03:38:07;;;;;;;61.43;41.00;;;4.50;93.10;;;;;;5033097;28;20040;-73
2023/02/04 03:40:33;;;;;;;67.53;42.50;;;4.50;93.00;;;;;;5032949;28;20036;-72
2023/02/04 03:42:59;;;;;;;65.60;41.40;;;4.50;93.00;;;;;;5033508;28;20032;-73
2023/02/04 03:45:25;;;;;;;64.53;40.80;;;4.40;93.00;;;;;;5032852;28;20053;-73
2023/02/04 03:47:50;;;;;;;59.83;39.83;;;4.40;93.10;;;;;;5032636;28;20040;-73
2023/02/04 03:50:16;;;;;;;57.43;37.73;;;4.40;93.00;;;;;;5032303;28;20052;-72
2023/02/04 03:52:43;;;;;;;60.73;39.00;;;4.40;93.10;;;;;;5032073;28;20088;-72
2023/02/04 03:55:09;;;;;;;62.87;41.07;;;4.40;93.20;;;;;;5032147;28;20040;-73
2023/02/04 03:57:35;;;;;;;61.67;38.07;;;4.30;93.10;;;;;;5032825;28;20029;-72
2023/02/04 04:00:00;;;;;;;63.00;40.23;;;4.30;93.10;;;;;;5031712;28;20036;-73
2023/02/04 04:02:26;;;;;;;62.93;38.77;;;4.30;93.10;;;;;;5032349;28;20036;-72
2023/02/04 04:04:52;;;;;;;60.60;39.23;;;4.20;93.20;;;;;;5031627;28;20045;-71
2023/02/04 04:07:17;;;;;;;67.33;41.97;;;4.20;93.30;;;;;;5031090;28;20036;-73
2023/02/04 04:09:43;;;;;;;62.00;38.33;;;4.20;93.40;;;;;;5032145;28;20071;-73
2023/02/04 04:12:09;;;;;;;63.43;39.87;;;4.20;93.50;;;;;;5031931;28;20033;-72
2023/02/04 04:14:35;;;;;;;61.03;39.93;;;4.20;93.60;;;;;;5030963;28;20042;-72
2023/02/04 04:17:01;;;;;;;64.60;39.07;;;4.20;93.80;;;;;;5034396;28;20057;-72
2023/02/04 04:19:27;;;;;;;64.03;40.40;;;4.20;94.00;;;;;;5032208;28;20080;-72
2023/02/04 04:21:52;;;;;;;66.97;39.83;;;4.20;94.10;;;;;;5032043;28;20117;-72
2023/02/04 04:24:18;;;;;;;59.63;39.83;;;4.20;94.20;;;;;;5031188;28;20116;-73
2023/02/04 04:26:44;;;;;;;62.03;38.87;;;4.20;93.90;;;;;;5031884;28;20087;-74
2023/02/04 04:29:09;;;;;;;62.57;39.23;;;4.20;93.90;;;;;;5030477;28;20041;-71
2023/02/04 04:31:35;;;;;;;61.27;37.37;;;4.10;93.80;;;;;;5030257;28;20092;-71
2023/02/04 04:34:01;;;;;;;60.43;39.37;;;4.10;93.80;;;;;;5032046;28;20046;-73
2023/02/04 04:36:27;;;;;;;59.90;37.90;;;4.10;93.80;;;;;;5032655;28;20033;-73
2023/02/04 04:38:52;;;;;;;63.33;38.47;;;4.00;93.80;;;;;;5032496;28;20488;-73
2023/02/04 04:41:18;;;;;;;72.77;39.13;;;4.00;93.70;;;;;;5032375;28;20101;-72
2023/02/04 04:43:44;;;;;;;64.13;38.63;;;4.00;93.80;;;;;;5032050;28;20038;-73
2023/02/04 04:46:09;;;;;;;59.93;38.00;;;4.00;93.80;;;;;;5032369;28;20052;-73
2023/02/04 04:48:35;;;;;;;62.13;38.33;;;4.00;93.80;;;;;;5032153;28;20087;-74
2023/02/04 04:51:01;;;;;;;59.00;37.13;;;4.00;93.80;;;;;;5032180;28;20029;-73
2023/02/04 04:53:26;;;;;;;57.17;37.93;;;4.00;93.50;;;;;;5032836;28;20049;-74
2023/02/04 04:55:52;;;;;;;61.13;36.47;;;4.00;93.40;;;;;;5032015;28;20032;-73
2023/02/04 04:58:18;;;;;;;59.13;37.13;;;3.90;93.50;;;;;;5031686;28;20033;-73
2023/02/04 05:00:43;;;;;;;60.40;38.77;;;3.90;93.80;;;;;;5031731;28;20044;-74
2023/02/04 05:03:09;;;;;;;59.93;37.73;;;3.90;93.90;;;;;;5032359;28;20112;-73
2023/02/04 05:05:38;;;;;;;59.33;36.83;;;3.80;93.80;;;;;;5032598;28;20042;-73
2023/02/04 05:08:05;;;;;;;58.17;36.93;;;3.80;93.90;;;;;;5032494;28;20061;-73
2023/02/04 05:10:31;;;;;;;54.73;34.47;;;3.80;94.10;;;;;;5032419;28;20061;-73
2023/02/04 05:12:57;;;;;;;52.83;34.40;;;3.80;93.70;;;;;;5032308;28;20076;-74
2023/02/04 05:15:22;;;;;;;56.47;35.53;;;3.80;94.00;;;;;;5032204;28;20091;-72
2023/02/04 05:17:48;;;;;;;56.77;35.90;;;3.80;94.10;;;;;;5032704;28;20029;-73
2023/02/04 05:20:14;;;;;;;55.60;35.67;;;3.90;94.50;;;;;;5032430;28;20065;-73
2023/02/04 05:22:39;;;;;;;57.93;34.87;;;3.90;94.40;;;;;;5032812;28;20033;-73
2023/02/04 05:25:05;;;;;;;55.40;34.23;;;3.90;94.20;;;;;;5032021;28;20080;-73
2023/02/04 05:27:31;;;;;;;55.10;34.50;;;3.80;94.10;;;;;;5032555;28;20038;-73
2023/02/04 05:29:57;;;;;;;56.87;34.40;;;3.80;94.00;;;;;;5032231;28;20038;-73
2023/02/04 05:32:23;;;;;;;57.33;33.47;;;3.80;94.10;;;;;;5031872;28;20112;-74
2023/02/04 05:34:48;;;;;;;55.57;36.27;;;3.70;94.30;;;;;;5032471;28;20088;-74
2023/02/04 05:37:16;;;;;;;56.67;35.20;;;3.70;94.40;;;;;;5032394;28;20038;-74
2023/02/04 05:39:41;;;;;;;54.70;34.57;;;3.70;94.60;;;;;;5030701;28;20049;-71
2023/02/04 05:42:07;;;;;;;55.70;33.57;;;3.70;94.70;;;;;;5032225;28;20440;-71
2023/02/04 05:44:33;;;;;;;49.97;32.87;;;3.70;94.80;;;;;;5032230;28;20029;-72
2023/02/04 05:46:58;;;;;;;52.50;31.87;;;3.70;94.90;;;;;;5032081;28;20104;-72
2023/02/04 05:49:24;;;;;;;48.77;32.37;;;3.70;94.90;;;;;;5032466;28;20073;-73
2023/02/04 05:51:50;;;;;;;51.47;31.97;;;3.70;95.00;;;;;;5032209;28;20129;-72
2023/02/04 05:54:18;;;;;;;52.70;32.07;;;3.70;94.90;;;;;;5032433;28;20061;-72
2023/02/04 05:56:47;;;;;;;48.67;31.23;;;3.70;94.90;;;;;;5032505;28;20021;-72
2023/02/04 05:59:13;;;;;;;60.13;33.17;;;3.80;94.80;;;;;;5031706;28;20078;-72
2023/02/04 06:01:39;;;;;;;59.50;34.33;;;3.70;94.50;;;;;;5031680;28;20041;-72
2023/02/04 06:04:05;;;;;;;49.63;32.90;;;3.70;94.50;;;;;;5031429;28;20128;-71
2023/02/04 06:06:30;;;;;;;58.23;34.03;;;3.70;94.70;;;;;;5031312;28;20029;-72
2023/02/04 06:08:56;;;;;;;50.43;31.87;;;3.80;95.00;;;;;;5031203;28;20041;-70
2023/02/04 06:11:22;;;;;;;59.00;33.23;;;3.70;94.60;;;;;;5031131;28;20180;-72
2023/02/04 06:13:48;;;;;;;47.67;32.23;;;3.70;94.60;;;;;;5031216;28;20077;-72
2023/02/04 06:16:13;;;;;;;47.47;31.20;;;3.60;94.40;;;;;;5031350;28;20029;-72
2023/02/04 06:18:39;;;;;;;47.60;31.07;;;3.60;94.30;;;;;;5030801;28;20116;-72
2023/02/04 06:21:05;;;;;;;50.97;33.17;;;3.60;94.40;;;;;;5031120;28;20419;-73
2023/02/04 06:23:33;;;;;;;55.33;34.10;;;3.60;94.50;;;;;;5032559;28;20042;-72
2023/02/04 06:26:00;;;;;;;58.33;34.97;;;3.60;94.60;;;;;;5034846;28;20037;-73
2023/02/04 06:28:26;;;;;;;52.30;32.13;;;3.60;94.70;;;;;;5034802;28;20061;-72
2023/02/04 06:30:52;;;;;;;52.20;32.90;;;3.60;94.60;;;;;;5033255;28;20087;-72
2023/02/04 06:33:17;;;;;;;61.53;34.60;;;3.60;94.60;;;;;;5033959;28;20064;-72
2023/02/04 06:35:43;;;;;;;47.77;32.23;;;3.60;94.60;;;;;;5034085;28;20034;-72
2023/02/04 06:38:09;;;;;;;52.23;33.20;;;3.50;94.70;;;;;;5034078;28;20034;-73
2023/02/04 06:40:34;;;;;;;51.73;34.20;;;3.50;94.70;;;;;;5033981;28;20063;-72
2023/02/04 06:43:00;;;;;;;50.47;32.83;;;3.50;94.70;;;;;;5033708;28;20034;-73
2023/02/04 06:45:26;;;;;;;52.33;32.90;;;3.50;94.40;;;;;;5033867;28;20037;-72
2023/02/04 06:47:52;;;;;;;55.10;34.33;;;3.50;94.50;;;;;;5034237;28;20073;-70
2023/02/04 06:50:18;;;;;;;51.43;32.47;;;3.50;94.40;;;;;;5033962;28;20025;-73
2023/02/04 06:52:47;;;;;;;52.50;32.20;;;3.50;94.40;;;;;;5033908;28;20116;-72
2023/02/04 06:55:14;;;;;;;56.90;34.37;;;3.50;94.40;;;;;;5033632;28;20045;-72
2023/02/04 06:57:40;;;;;;;57.87;35.10;;;3.50;94.40;;;;;;5033291;28;20057;-73
2023/02/04 07:00:07;;;;;;;54.23;34.67;;;3.50;94.50;;;;;;5032961;28;20091;-72
2023/02/04 07:02:33;;;;;;;51.83;34.13;;;3.50;94.40;;;;;;5033265;28;20067;-73
2023/02/04 07:05:00;;;;;;;52.93;32.60;;;3.50;94.40;;;;;;5033801;28;20077;-72
2023/02/04 07:07:26;;;;;;;57.50;35.20;;;3.50;94.30;;;;;;5033810;28;20048;-73
2023/02/04 07:09:52;;;;;;;51.23;33.67;;;3.40;94.50;;;;;;5033818;28;20083;-72
2023/02/04 07:12:18;;;;;;;55.40;34.33;;;3.50;94.70;;;;;;5033191;28;20033;-71
2023/02/04 07:14:43;;;;;;;55.93;35.30;;;3.40;94.90;;;;;;5033707;28;20399;-72
2023/02/04 07:17:09;;;;;;;53.67;34.23;;;3.40;95.00;;;;;;5032910;28;20619;-72
2023/02/04 07:19:35;;;;;;;52.43;34.50;;;3.40;95.20;;;;;;5033361;28;20057;-73
2023/02/04 07:22:02;;;;;;;63.20;37.87;;;3.50;95.30;;;;;;5032484;28;20029;-71
2023/02/04 07:24:28;;;;;;;85.57;50.33;;;3.50;95.40;;;;;;5034005;28;20057;-72
2023/02/04 07:26:54;;;;;;;73.17;46.27;;;3.60;95.50;;;;;;5032658;28;20037;-72
2023/02/04 07:29:20;;;;;;;65.93;42.30;;;3.60;95.60;;;;;;5031251;28;20041;-71
2023/02/04 07:31:46;;;;;;;51.70;33.57;;;3.60;95.60;;;;;;5031464;28;20088;-71
2023/02/04 07:34:13;;;;;;;48.37;31.93;;;3.70;95.70;;;;;;5031190;28;20104;-72
2023/02/04 07:36:39;;;;;;;52.70;32.23;;;3.70;95.60;;;;;;5030956;28;20038;-72
2023/02/04 07:39:05;;;;;;;47.37;30.73;;;3.80;95.70;;;;;;5031500;28;20463;-73
2023/02/04 07:41:31;;;;;;;49.43;31.00;;;3.80;95.70;;;;;;5033303;28;20041;-72
2023/02/04 07:43:56;;;;;;;47.70;30.33;;;3.90;95.70;;;;;;5033651;28;20369;-72
2023/02/04 07:46:22;;;;;;;49.70;30.87;;;3.90;95.60;;;;;;5033579;28;20055;-73
2023/02/04 07:48:48;;;;;;;45.60;29.97;;;4.00;95.70;;;;;;5033487;28;20092;-73
2023/02/04 07:51:14;;;;;;;47.13;30.43;;;4.00;95.70;;;;;;5033241;28;20052;-73
2023/02/04 07:53:39;;;;;;;44.43;28.97;;;4.10;95.70;;;;;;5033381;28;20055;-73
2023/02/04 07:56:05;;;;;;;57.27;32.13;;;4.10;95.70;;;;;;5033202;28;20041;-72
2023/02/04 07:58:31;;;;;;;47.63;30.23;;;4.10;95.80;;;;;;5033846;28;20042;-72
2023/02/04 08:00:57;;;;;;;52.13;31.90;;;4.20;95.90;;;;;;5033362;28;20103;-73
2023/02/04 08:03:23;;;;;;;49.57;32.07;;;4.20;96.00;;;;;;5033656;28;20507;-72
2023/02/04 08:05:48;;;;;;;47.27;32.60;;;4.30;96.00;;;;;;5033880;28;20059;-69
2023/02/04 08:08:14;;;;;;;52.47;31.80;;;4.30;96.10;;;;;;5033685;28;20080;-70
2023/02/04 08:10:40;;;;;;;51.77;32.60;;;4.40;96.20;;;;;;5033333;28;20041;-70
2023/02/04 08:13:06;;;;;;;51.13;33.70;;;4.40;96.30;;;;;;5029638;28;20136;-73
2023/02/04 08:15:32;;;;;;;51.07;31.70;;;4.50;96.40;;;;;;5029733;28;20044;-69
2023/02/04 08:17:58;;;;;;;45.20;31.73;;;4.50;96.40;;;;;;5028913;28;20067;-70
2023/02/04 08:20:23;;;;;;;45.43;30.80;;;4.60;96.50;;;;;;5032788;28;20037;-69
2023/02/04 08:22:49;;;;;;;51.97;30.63;;;4.60;96.50;;;;;;5033061;28;20034;-69
2023/02/04 08:25:15;;;;;;;47.67;29.10;;;4.70;96.70;;;;;;5032696;28;20029;-69
2023/02/04 08:27:41;;;;;;;48.53;27.93;;;4.80;96.70;;;;;;5033019;28;20045;-72
2023/02/04 08:30:07;;;;;;;40.63;27.53;;;4.90;96.60;;;;;;5033430;28;20144;-68
2023/02/04 08:32:33;;;;;;;39.97;26.37;;;5.00;96.50;;;;;;5032961;28;20562;-69
2023/02/04 08:34:59;;;;;;;42.67;26.87;;;5.00;96.50;;;;;;5032819;28;20045;-72
2023/02/04 08:37:25;;;;;;;40.00;25.70;;;5.10;96.60;;;;;;5032513;28;20026;-73
2023/02/04 08:39:51;;;;;;;38.87;25.03;;;5.20;96.60;;;;;;5032365;28;20125;-72
2023/02/04 08:42:17;;;;;;;37.13;23.67;;;5.20;96.60;;;;;;5032585;28;20040;-73
2023/02/04 08:44:42;;;;;;;39.00;24.37;;;5.30;96.60;;;;;;5031277;28;20034;-73
2023/02/04 08:47:09;;;;;;;36.53;23.17;;;5.40;96.30;;;;;;5032645;28;20029;-72
2023/02/04 08:49:35;;;;;;;42.83;23.07;;;5.40;96.10;;;;;;5032653;28;20496;-72
2023/02/04 08:52:03;;;;;;;35.20;21.20;;;5.50;96.20;;;;;;5032759;28;20029;-72
2023/02/04 08:54:28;;;;;;;40.50;20.83;;;5.60;96.20;;;;;;5032807;28;20065;-73
2023/02/04 08:56:54;;;;;;;31.73;19.97;;;5.60;96.10;;;;;;5032746;28;20068;-72
2023/02/04 08:59:24;;;;;;;33.53;19.70;;;5.70;96.20;;;;;;5032953;28;20044;-73
2023/02/04 09:01:51;;;;;;;29.80;19.63;;;5.80;96.20;;;;;;5032547;28;20069;-73
2023/02/04 09:04:21;;;;;;;34.47;21.50;;;5.80;96.00;;;;;;5032690;28;20098;-73
2023/02/04 09:06:49;;;;;;;36.03;23.43;;;5.90;95.90;;;;;;5032794;28;20369;-74
2023/02/04 09:09:16;;;;;;;33.93;22.40;;;6.00;96.00;;;;;;5033248;28;20084;-73
2023/02/04 09:11:42;;;;;;;30.80;20.73;;;6.00;95.80;;;;;;5032945;28;20065;-74
2023/02/04 09:14:08;;;;;;;32.93;22.10;;;6.10;95.70;;;;;;5032269;28;20041;-74
2023/02/04 09:16:34;;;;;;;28.67;20.30;;;6.20;95.60;;;;;;5032709;28;20049;-74
2023/02/04 09:19:03;;;;;;;34.23;20.23;;;6.20;95.50;;;;;;5032788;28;20048;-72
2023/02/04 09:21:30;;;;;;;31.80;19.37;;;6.30;95.50;;;;;;5032610;28;20026;-73
2023/02/04 09:23:56;;;;;;;27.77;20.53;;;6.50;95.70;;;;;;5032813;28;20034;-73
2023/02/04 09:26:22;;;;;;;32.93;19.80;;;6.50;95.60;;;;;;5032662;28;20065;-73
2023/02/04 09:28:48;;;;;;;30.67;18.97;;;6.60;95.60;;;;;;5032729;28;20464;-73
2023/02/04 09:31:15;;;;;;;38.73;25.77;;;6.70;95.50;;;;;;5032550;28;20057;-73
2023/02/04 09:33:41;;;;;;;33.67;24.33;;;6.80;95.40;;;;;;5032433;28;20045;-73
2023/02/04 09:36:07;;;;;;;35.60;22.97;;;6.90;95.40;;;;;;5032584;28;20034;-73
2023/02/04 09:38:33;;;;;;;47.73;32.53;;;7.00;95.10;;;;;;5032198;28;20041;-74
2023/02/04 09:41:05;;;;;;;90.73;54.43;;;7.10;95.00;;;;;;5032202;28;20056;-74
2023/02/04 09:43:34;;;;;;;120.95;66.85;;;7.20;94.90;;;;;;5032338;28;20048;-73
2023/02/04 09:46:01;;;;;;;73.80;40.73;;;7.30;94.80;;;;;;5032270;28;20030;-74
2023/02/04 09:48:27;;;;;;;36.03;23.60;;;7.40;94.70;;;;;;5032560;28;20034;-73
2023/02/04 09:51:03;;;;;;;32.07;20.47;;;7.50;94.70;;;;;;5032652;28;20060;-73
2023/02/04 09:53:30;;;;;;;33.30;20.27;;;7.60;94.50;;;;;;5032283;28;20041;-74
2023/02/04 09:55:56;;;;;;;26.50;18.33;;;7.80;94.90;;;;;;5032393;28;20029;-74
2023/02/04 09:58:22;;;;;;;29.00;19.13;;;7.90;94.50;;;;;;5033125;28;20084;-74
2023/02/04 10:01:04;;;;;;;27.90;18.00;;;8.00;94.00;;;;;;5036054;28;20042;-74
2023/02/04 10:03:30;;;;;;;28.53;18.50;;;8.10;93.70;;;;;;5036199;28;20492;-73
2023/02/04 10:05:55;;;;;;;26.73;17.67;;;8.30;93.90;;;;;;5035806;28;20033;-73
2023/02/04 10:08:29;;;;;;;26.30;16.93;;;8.40;93.70;;;;;;5036095;28;20041;-74
2023/02/04 10:10:55;;;;;;;26.90;16.63;;;8.50;93.70;;;;;;5036124;28;20030;-74
2023/02/04 10:13:33;;;;;;;23.53;15.80;;;8.60;93.20;;;;;;5035686;28;20103;-73
2023/02/04 10:16:01;;;;;;;26.63;15.73;;;8.70;93.20;;;;;;5035654;28;20506;-74
2023/02/04 10:18:32;;;;;;;24.67;15.13;;;8.80;93.20;;;;;;5035852;28;20034;-74
2023/02/04 10:21:23;;;;;;;23.83;14.90;;;8.90;93.40;;;;;;5035668;28;20029;-74
2023/02/04 10:23:53;;;;;;;24.37;14.50;;;9.00;93.40;;;;;;5026612;28;20064;-74
2023/02/04 10:26:21;;;;;;;21.60;14.57;;;9.10;93.50;;;;;;5035720;28;20075;-73
2023/02/04 10:28:48;;;;;;;21.60;14.60;;;9.20;93.60;;;;;;5035483;28;20041;-74
2023/02/04 10:31:39;;;;;;;17.37;13.73;;;9.30;93.40;;;;;;5035623;28;20468;-74
2023/02/04 10:34:38;;;;;;;20.03;14.17;;;9.40;93.20;;;;;;5035495;28;20042;-73
2023/02/04 10:37:24;;;;;;;20.17;13.53;;;9.50;93.50;;;;;;5028749;28;20539;-75
2023/02/04 10:39:50;;;;;;;21.37;14.43;;;9.60;93.20;;;;;;5034733;28;20065;-74
2023/02/04 10:42:27;;;;;;;24.73;14.33;;;9.70;92.90;;;;;;5035692;28;20068;-75
2023/02/04 10:44:53;;;;;;;21.47;12.50;;;9.70;92.80;;;;;;5032091;28;20038;-75
2023/02/04 10:47:24;;;;;;;19.93;13.57;;;9.80;92.60;;;;;;5032826;28;20037;-74
2023/02/04 10:49:52;;;;;;;27.47;14.30;;;9.90;92.50;;;;;;5035293;28;20026;-75
2023/02/04 10:52:20;;;;;;;24.10;14.20;;;10.00;92.40;;;;;;5035216;28;20503;-75
2023/02/04 10:54:46;;;;;;;18.50;13.67;;;10.00;92.20;;;;;;5034949;28;20046;-75
2023/02/04 10:57:29;;;;;;;21.83;13.87;;;10.10;92.10;;;;;;5035153;28;20505;-74
2023/02/04 10:59:58;;;;;;;21.75;13.43;;;10.20;91.90;;;;;;5035232;28;20037;-74
2023/02/04 11:02:23;;;;;;;24.57;14.03;;;10.30;91.60;;;;;;5034747;28;20049;-72
2023/02/04 11:04:49;;;;;;;26.77;14.43;;;10.40;91.40;;;;;;5035088;28;20034;-75
2023/02/04 11:07:15;;;;;;;25.17;15.97;;;10.40;91.10;;;;;;5035047;28;20048;-74
2023/02/04 11:09:42;;;;;;;23.00;15.27;;;10.50;90.90;;;;;;5031497;28;20041;-73
2023/02/04 11:12:23;;;;;;;23.50;14.68;;;10.60;91.00;;;;;;5032167;28;20124;-75
2023/02/04 11:14:56;;;;;;;23.80;15.33;;;10.70;90.80;;;;;;5033396;28;20091;-74
2023/02/04 11:17:32;;;;;;;20.63;14.93;;;10.70;90.10;;;;;;5034487;28;20029;-76
2023/02/04 11:19:59;;;;;;;19.27;13.77;;;10.80;90.20;;;;;;5034574;28;20068;-75
2023/02/04 11:22:52;;;;;;;23.40;15.70;;;10.80;90.10;;;;;;5034328;28;20038;-73
2023/02/04 11:25:39;;;;;;;23.95;15.93;;;11.00;89.90;;;;;;5034430;28;20038;-76
2023/02/04 11:28:25;;;;;;;30.67;15.70;;;11.00;89.90;;;;;;5034385;28;20029;-74
2023/02/04 11:31:32;;;;;;;33.43;16.40;;;11.10;88.90;;;;;;5034195;28;20041;-75
2023/02/04 11:34:17;;;;;;;24.05;15.65;;;11.20;89.10;;;;;;5019920;28;20091;-75
2023/02/04 11:37:16;;;;;;;20.50;15.07;;;11.30;89.20;;;;;;5033190;28;20116;-74
2023/02/04 11:39:44;;;;;;;29.15;16.15;;;11.30;88.90;;;;;;5033789;28;20476;-75
2023/02/04 11:42:26;;;;;;;26.45;15.48;;;11.50;88.40;;;;;;5034192;28;20037;-75
2023/02/04 11:45:00;;;;;;;23.20;15.27;;;11.60;88.30;;;;;;5034353;28;20083;-76
2023/02/04 11:47:32;;;;;;;21.38;14.77;;;11.60;87.60;;;;;;5033722;28;20064;-75
2023/02/04 11:50:02;;;;;;;21.88;16.00;;;11.70;87.00;;;;;;5034210;28;20037;-76
2023/02/04 11:52:28;;;;;;;22.20;15.95;;;11.80;86.50;;;;;;5034108;28;20049;-76
2023/02/04 11:54:59;;;;;;;23.02;16.17;;;11.90;86.10;;;;;;5033568;28;20135;-75
2023/02/04 11:57:26;;;;;;;27.45;15.18;;;11.90;85.60;;;;;;5033785;28;20033;-76
2023/02/04 11:59:52;;;;;;;26.33;15.65;;;12.00;85.20;;;;;;5033194;28;20041;-73
2023/02/04 12:02:19;;;;;;;25.10;15.52;;;12.10;84.50;;;;;;5033213;28;20522;-75
2023/02/04 12:05:10;;;;;;;24.63;15.88;;;12.10;83.70;;;;;;5033324;28;20029;-75
2023/02/04 12:07:36;;;;;;;25.48;16.35;;;12.20;83.70;;;;;;5033161;28;20029;-73
2023/02/04 12:10:17;;;;;;;23.85;17.00;;;12.30;82.80;;;;;;5033577;28;20033;-73
2023/02/04 12:12:51;;;;;;;27.75;16.83;;;12.30;82.00;;;;;;5033466;28;20516;-74
2023/02/04 12:15:25;;;;;;;23.30;16.65;;;12.40;82.90;;;;;;5032928;28;20088;-75
2023/02/04 12:18:04;;;;;;;26.45;18.05;;;12.50;82.30;;;;;;5033237;28;20104;-75
2023/02/04 12:20:30;;;;;;;24.70;17.00;;;12.50;81.50;;;;;;5032908;28;20428;-76
2023/02/04 12:22:56;;;;;;;26.13;19.05;;;12.60;81.60;;;;;;5032595;28;20040;-73
2023/02/04 12:25:21;;;;;;;28.77;19.80;;;12.60;81.10;;;;;;5033298;28;20033;-73
2023/02/04 12:27:47;;;;;;;30.63;21.83;;;12.60;81.30;;;;;;5032932;28;20104;-73
2023/02/04 12:30:13;;;;;;;31.77;21.90;;;12.70;81.30;;;;;;5032545;28;20095;-72
2023/02/04 12:32:39;;;;;;;28.92;21.40;;;12.70;81.50;;;;;;5033095;28;20025;-74
2023/02/04 12:35:05;;;;;;;30.92;20.80;;;12.80;81.40;;;;;;5032955;28;20326;-73
2023/02/04 12:37:31;;;;;;;33.60;21.92;;;12.80;81.60;;;;;;5032682;28;20040;-73
2023/02/04 12:39:56;;;;;;;28.48;19.90;;;12.80;81.20;;;;;;5031582;28;20071;-73